sensor_id;sensor_type;location;lat;lon;timestamp;P1;durP1;ratioP1;P2;durP2;ratioP2
7707;SDS011;3896;48.758;8.888;2022-07-06T00:02:14;3.03;;;2.63;;
7707;SDS011;3896;48.758;8.888;2022-07-06T00:04:40;2.17;;;2.07;;
7707;SDS011;3896;48.758;8.888;2022-07-06T00:07:05;3.30;;;2.30;;
7707;SDS011;3896;48.758;8.888;2022-07-06T00:09:31;2.67;;;2.17;;
7707;SDS011;3896;48.758;8.888;2022-07-06T00:11:58;3.53;;;2.40;;
7707;SDS011;3896;48.758;8.888;2022-07-06T00:14:23;4.57;;;1.93;;
7707;SDS011;3896;48.758;8.888;2022-07-06T00:16:49;3.73;;;2.30;;
7707;SDS011;3896;48.758;8.888;2022-07-06T00:19:14;2.37;;;2.17;;
7707;SDS011;3896;48.758;8.888;2022-07-06T00:21:40;6.30;;;2.27;;
7707;SDS011;3896;48.758;8.888;2022-07-06T00:24:06;3.10;;;2.20;;
7707;SDS011;3896;48.758;8.888;2022-07-06T00:26:32;6.07;;;2.53;;
7707;SDS011;3896;48.758;8.888;2022-07-06T00:28:58;2.30;;;2.10;;
7707;SDS011;3896;48.758;8.888;2022-07-06T00:31:23;2.53;;;2.43;;
7707;SDS011;3896;48.758;8.888;2022-07-06T00:33:49;2.37;;;2.17;;
7707;SDS011;3896;48.758;8.888;2022-07-06T00:36:14;2.40;;;2.20;;
7707;SDS011;3896;48.758;8.888;2022-07-06T00:38:40;2.20;;;2.10;;
7707;SDS011;3896;48.758;8.888;2022-07-06T00:41:06;3.13;;;2.20;;
7707;SDS011;3896;48.758;8.888;2022-07-06T00:43:48;2.50;;;2.30;;
7707;SDS011;3896;48.758;8.888;2022-07-06T00:46:13;2.50;;;2.30;;
7707;SDS011;3896;48.758;8.888;2022-07-06T00:48:39;3.33;;;2.70;;
7707;SDS011;3896;48.758;8.888;2022-07-06T00:51:05;2.50;;;2.20;;
7707;SDS011;3896;48.758;8.888;2022-07-06T00:53:31;3.90;;;2.33;;
7707;SDS011;3896;48.758;8.888;2022-07-06T00:55:56;2.47;;;2.27;;
7707;SDS011;3896;48.758;8.888;2022-07-06T00:58:22;2.37;;;1.90;;
7707;SDS011;3896;48.758;8.888;2022-07-06T01:00:48;4.97;;;2.13;;
7707;SDS011;3896;48.758;8.888;2022-07-06T01:03:13;5.10;;;2.23;;
7707;SDS011;3896;48.758;8.888;2022-07-06T01:05:39;2.23;;;2.10;;
7707;SDS011;3896;48.758;8.888;2022-07-06T01:08:05;2.30;;;2.20;;
7707;SDS011;3896;48.758;8.888;2022-07-06T01:10:30;3.87;;;2.10;;
7707;SDS011;3896;48.758;8.888;2022-07-06T01:12:56;2.13;;;1.80;;
7707;SDS011;3896;48.758;8.888;2022-07-06T01:15:23;3.47;;;2.10;;
7707;SDS011;3896;48.758;8.888;2022-07-06T01:17:50;2.50;;;2.23;;
7707;SDS011;3896;48.758;8.888;2022-07-06T01:20:17;3.87;;;2.10;;
7707;SDS011;3896;48.758;8.888;2022-07-06T01:22:43;2.33;;;2.23;;
7707;SDS011;3896;48.758;8.888;2022-07-06T01:25:09;3.87;;;2.17;;
7707;SDS011;3896;48.758;8.888;2022-07-06T01:27:36;4.17;;;2.00;;
7707;SDS011;3896;48.758;8.888;2022-07-06T01:30:22;2.10;;;1.90;;
7707;SDS011;3896;48.758;8.888;2022-07-06T01:32:47;3.47;;;2.10;;
7707;SDS011;3896;48.758;8.888;2022-07-06T01:35:14;3.03;;;2.10;;
7707;SDS011;3896;48.758;8.888;2022-07-06T01:37:40;4.83;;;2.10;;
7707;SDS011;3896;48.758;8.888;2022-07-06T01:40:07;2.00;;;1.90;;
7707;SDS011;3896;48.758;8.888;2022-07-06T01:42:35;3.50;;;1.90;;
7707;SDS011;3896;48.758;8.888;2022-07-06T01:45:01;2.50;;;2.30;;
7707;SDS011;3896;48.758;8.888;2022-07-06T01:47:28;2.47;;;2.10;;
7707;SDS011;3896;48.758;8.888;2022-07-06T01:49:53;2.30;;;2.10;;
7707;SDS011;3896;48.758;8.888;2022-07-06T01:52:19;2.60;;;2.40;;
7707;SDS011;3896;48.758;8.888;2022-07-06T01:54:45;2.53;;;2.33;;
7707;SDS011;3896;48.758;8.888;2022-07-06T01:57:10;2.77;;;2.57;;
7707;SDS011;3896;48.758;8.888;2022-07-06T01:59:36;2.83;;;2.30;;
7707;SDS011;3896;48.758;8.888;2022-07-06T02:02:02;3.00;;;2.13;;
7707;SDS011;3896;48.758;8.888;2022-07-06T02:04:27;4.47;;;2.57;;
7707;SDS011;3896;48.758;8.888;2022-07-06T02:06:53;3.43;;;2.20;;
7707;SDS011;3896;48.758;8.888;2022-07-06T02:09:19;2.70;;;2.00;;
7707;SDS011;3896;48.758;8.888;2022-07-06T02:11:44;2.70;;;2.50;;
7707;SDS011;3896;48.758;8.888;2022-07-06T02:14:10;2.07;;;1.93;;
7707;SDS011;3896;48.758;8.888;2022-07-06T02:16:36;2.37;;;2.23;;
7707;SDS011;3896;48.758;8.888;2022-07-06T02:19:01;3.43;;;2.07;;
7707;SDS011;3896;48.758;8.888;2022-07-06T02:21:27;2.47;;;2.20;;
7707;SDS011;3896;48.758;8.888;2022-07-06T02:23:53;1.93;;;1.83;;
7707;SDS011;3896;48.758;8.888;2022-07-06T02:26:19;2.37;;;2.17;;
7707;SDS011;3896;48.758;8.888;2022-07-06T02:28:44;3.00;;;2.17;;
7707;SDS011;3896;48.758;8.888;2022-07-06T02:31:12;4.53;;;2.30;;
7707;SDS011;3896;48.758;8.888;2022-07-06T02:33:38;2.37;;;2.10;;
7707;SDS011;3896;48.758;8.888;2022-07-06T02:36:04;3.03;;;2.10;;
7707;SDS011;3896;48.758;8.888;2022-07-06T02:38:30;2.77;;;2.40;;
7707;SDS011;3896;48.758;8.888;2022-07-06T02:40:56;3.83;;;2.37;;
7707;SDS011;3896;48.758;8.888;2022-07-06T02:43:21;2.80;;;2.33;;
7707;SDS011;3896;48.758;8.888;2022-07-06T02:45:47;3.73;;;2.67;;
7707;SDS011;3896;48.758;8.888;2022-07-06T02:48:13;4.97;;;2.40;;
7707;SDS011;3896;48.758;8.888;2022-07-06T02:50:38;4.87;;;2.33;;
7707;SDS011;3896;48.758;8.888;2022-07-06T02:53:04;2.23;;;2.13;;
7707;SDS011;3896;48.758;8.888;2022-07-06T02:55:29;4.43;;;2.70;;
7707;SDS011;3896;48.758;8.888;2022-07-06T02:57:55;5.77;;;3.33;;
7707;SDS011;3896;48.758;8.888;2022-07-06T03:00:21;6.53;;;2.70;;
7707;SDS011;3896;48.758;8.888;2022-07-06T03:02:47;2.67;;;2.40;;
7707;SDS011;3896;48.758;8.888;2022-07-06T03:05:12;3.00;;;2.60;;
7707;SDS011;3896;48.758;8.888;2022-07-06T03:07:38;3.23;;;2.63;;
7707;SDS011;3896;48.758;8.888;2022-07-06T03:10:03;3.20;;;3.00;;
7707;SDS011;3896;48.758;8.888;2022-07-06T03:12:29;3.63;;;2.90;;
7707;SDS011;3896;48.758;8.888;2022-07-06T03:14:55;3.60;;;2.47;;
7707;SDS011;3896;48.758;8.888;2022-07-06T03:17:21;4.43;;;2.77;;
7707;SDS011;3896;48.758;8.888;2022-07-06T03:19:46;4.47;;;2.80;;
7707;SDS011;3896;48.758;8.888;2022-07-06T03:22:12;4.63;;;2.80;;
7707;SDS011;3896;48.758;8.888;2022-07-06T03:24:39;3.67;;;2.97;;
7707;SDS011;3896;48.758;8.888;2022-07-06T03:27:05;4.97;;;2.80;;
7707;SDS011;3896;48.758;8.888;2022-07-06T03:29:30;3.20;;;2.90;;
7707;SDS011;3896;48.758;8.888;2022-07-06T03:31:56;2.83;;;2.53;;
7707;SDS011;3896;48.758;8.888;2022-07-06T03:34:22;3.50;;;2.63;;
7707;SDS011;3896;48.758;8.888;2022-07-06T03:36:47;5.13;;;2.97;;
7707;SDS011;3896;48.758;8.888;2022-07-06T03:39:13;2.93;;;2.73;;
7707;SDS011;3896;48.758;8.888;2022-07-06T03:41:39;3.57;;;2.67;;
7707;SDS011;3896;48.758;8.888;2022-07-06T03:44:04;3.40;;;2.73;;
7707;SDS011;3896;48.758;8.888;2022-07-06T03:46:30;3.13;;;2.77;;
7707;SDS011;3896;48.758;8.888;2022-07-06T03:48:55;3.03;;;2.83;;
7707;SDS011;3896;48.758;8.888;2022-07-06T03:51:21;5.87;;;2.80;;
7707;SDS011;3896;48.758;8.888;2022-07-06T03:53:47;5.73;;;3.07;;
7707;SDS011;3896;48.758;8.888;2022-07-06T03:56:12;5.70;;;3.03;;
7707;SDS011;3896;48.758;8.888;2022-07-06T03:58:53;4.43;;;2.93;;
7707;SDS011;3896;48.758;8.888;2022-07-06T04:01:23;3.37;;;3.07;;
7707;SDS011;3896;48.758;8.888;2022-07-06T04:03:49;3.70;;;3.10;;
7707;SDS011;3896;48.758;8.888;2022-07-06T04:06:15;5.63;;;3.60;;
7707;SDS011;3896;48.758;8.888;2022-07-06T04:08:40;7.13;;;4.00;;
7707;SDS011;3896;48.758;8.888;2022-07-06T04:11:06;6.23;;;3.80;;
7707;SDS011;3896;48.758;8.888;2022-07-06T04:13:32;7.60;;;4.20;;
7707;SDS011;3896;48.758;8.888;2022-07-06T04:15:58;7.30;;;3.77;;
7707;SDS011;3896;48.758;8.888;2022-07-06T04:18:24;4.07;;;3.57;;
7707;SDS011;3896;48.758;8.888;2022-07-06T04:20:49;4.33;;;3.93;;
7707;SDS011;3896;48.758;8.888;2022-07-06T04:23:15;4.10;;;3.60;;
7707;SDS011;3896;48.758;8.888;2022-07-06T04:25:41;7.23;;;4.20;;
7707;SDS011;3896;48.758;8.888;2022-07-06T04:28:06;6.93;;;3.93;;
7707;SDS011;3896;48.758;8.888;2022-07-06T04:30:32;5.13;;;4.23;;
7707;SDS011;3896;48.758;8.888;2022-07-06T04:32:58;4.83;;;3.83;;
7707;SDS011;3896;48.758;8.888;2022-07-06T04:35:24;8.30;;;4.30;;
7707;SDS011;3896;48.758;8.888;2022-07-06T04:37:50;6.50;;;3.93;;
7707;SDS011;3896;48.758;8.888;2022-07-06T04:40:16;10.57;;;4.23;;
7707;SDS011;3896;48.758;8.888;2022-07-06T04:42:41;6.83;;;3.97;;
7707;SDS011;3896;48.758;8.888;2022-07-06T04:45:07;4.10;;;3.57;;
7707;SDS011;3896;48.758;8.888;2022-07-06T04:47:34;5.00;;;3.90;;
7707;SDS011;3896;48.758;8.888;2022-07-06T04:50:00;5.53;;;3.90;;
7707;SDS011;3896;48.758;8.888;2022-07-06T04:52:26;5.80;;;3.80;;
7707;SDS011;3896;48.758;8.888;2022-07-06T04:54:52;6.10;;;4.87;;
7707;SDS011;3896;48.758;8.888;2022-07-06T04:57:19;4.67;;;4.27;;
7707;SDS011;3896;48.758;8.888;2022-07-06T04:59:45;5.60;;;4.60;;
7707;SDS011;3896;48.758;8.888;2022-07-06T05:02:10;8.13;;;4.93;;
7707;SDS011;3896;48.758;8.888;2022-07-06T05:04:36;7.17;;;4.10;;
7707;SDS011;3896;48.758;8.888;2022-07-06T05:07:01;5.27;;;4.17;;
7707;SDS011;3896;48.758;8.888;2022-07-06T05:09:27;6.50;;;3.93;;
7707;SDS011;3896;48.758;8.888;2022-07-06T05:11:53;8.70;;;4.57;;
7707;SDS011;3896;48.758;8.888;2022-07-06T05:14:19;5.80;;;4.40;;
7707;SDS011;3896;48.758;8.888;2022-07-06T05:16:44;8.33;;;4.83;;
7707;SDS011;3896;48.758;8.888;2022-07-06T05:19:10;5.40;;;3.60;;
7707;SDS011;3896;48.758;8.888;2022-07-06T05:21:35;5.40;;;4.10;;
7707;SDS011;3896;48.758;8.888;2022-07-06T05:24:01;6.27;;;4.27;;
7707;SDS011;3896;48.758;8.888;2022-07-06T05:26:27;6.20;;;4.03;;
7707;SDS011;3896;48.758;8.888;2022-07-06T05:28:52;8.27;;;4.23;;
7707;SDS011;3896;48.758;8.888;2022-07-06T05:31:18;4.47;;;4.00;;
7707;SDS011;3896;48.758;8.888;2022-07-06T05:33:44;4.87;;;4.07;;
7707;SDS011;3896;48.758;8.888;2022-07-06T05:36:09;4.50;;;4.10;;
7707;SDS011;3896;48.758;8.888;2022-07-06T05:38:35;5.40;;;3.83;;
7707;SDS011;3896;48.758;8.888;2022-07-06T05:41:00;4.93;;;4.07;;
7707;SDS011;3896;48.758;8.888;2022-07-06T05:43:26;3.63;;;3.27;;
7707;SDS011;3896;48.758;8.888;2022-07-06T05:45:51;3.23;;;2.90;;
7707;SDS011;3896;48.758;8.888;2022-07-06T05:48:17;4.33;;;3.93;;
7707;SDS011;3896;48.758;8.888;2022-07-06T05:51:01;5.03;;;4.23;;
7707;SDS011;3896;48.758;8.888;2022-07-06T05:53:27;5.10;;;3.83;;
7707;SDS011;3896;48.758;8.888;2022-07-06T05:55:52;6.90;;;3.83;;
7707;SDS011;3896;48.758;8.888;2022-07-06T05:58:18;4.27;;;3.60;;
7707;SDS011;3896;48.758;8.888;2022-07-06T06:00:43;4.13;;;3.70;;
7707;SDS011;3896;48.758;8.888;2022-07-06T06:03:09;5.50;;;3.63;;
7707;SDS011;3896;48.758;8.888;2022-07-06T06:05:35;5.07;;;3.80;;
7707;SDS011;3896;48.758;8.888;2022-07-06T06:08:00;5.90;;;3.30;;
7707;SDS011;3896;48.758;8.888;2022-07-06T06:10:26;4.33;;;3.10;;
7707;SDS011;3896;48.758;8.888;2022-07-06T06:12:52;8.67;;;3.83;;
7707;SDS011;3896;48.758;8.888;2022-07-06T06:15:18;3.30;;;3.10;;
7707;SDS011;3896;48.758;8.888;2022-07-06T06:17:44;4.57;;;3.20;;
7707;SDS011;3896;48.758;8.888;2022-07-06T06:20:10;5.55;;;3.22;;
7707;SDS011;3896;48.758;8.888;2022-07-06T06:22:47;5.80;;;3.10;;
7707;SDS011;3896;48.758;8.888;2022-07-06T06:25:18;6.07;;;3.13;;
7707;SDS011;3896;48.758;8.888;2022-07-06T06:27:46;5.63;;;3.20;;
7707;SDS011;3896;48.758;8.888;2022-07-06T06:30:12;5.47;;;3.13;;
7707;SDS011;3896;48.758;8.888;2022-07-06T06:32:38;4.10;;;2.77;;
7707;SDS011;3896;48.758;8.888;2022-07-06T06:35:04;2.83;;;2.60;;
7707;SDS011;3896;48.758;8.888;2022-07-06T06:37:31;4.07;;;2.87;;
7707;SDS011;3896;48.758;8.888;2022-07-06T06:39:57;6.13;;;2.90;;
7707;SDS011;3896;48.758;8.888;2022-07-06T06:42:23;4.93;;;2.93;;
7707;SDS011;3896;48.758;8.888;2022-07-06T06:44:48;3.47;;;2.47;;
7707;SDS011;3896;48.758;8.888;2022-07-06T06:47:14;4.87;;;3.13;;
7707;SDS011;3896;48.758;8.888;2022-07-06T06:49:40;3.80;;;3.30;;
7707;SDS011;3896;48.758;8.888;2022-07-06T06:52:05;3.30;;;2.80;;
7707;SDS011;3896;48.758;8.888;2022-07-06T06:54:31;6.10;;;2.60;;
7707;SDS011;3896;48.758;8.888;2022-07-06T06:56:56;3.80;;;3.33;;
7707;SDS011;3896;48.758;8.888;2022-07-06T06:59:23;2.67;;;2.47;;
7707;SDS011;3896;48.758;8.888;2022-07-06T07:01:48;4.07;;;2.73;;
7707;SDS011;3896;48.758;8.888;2022-07-06T07:04:14;3.57;;;2.67;;
7707;SDS011;3896;48.758;8.888;2022-07-06T07:06:40;4.50;;;2.90;;
7707;SDS011;3896;48.758;8.888;2022-07-06T07:09:05;5.33;;;2.57;;
7707;SDS011;3896;48.758;8.888;2022-07-06T07:11:31;3.47;;;3.17;;
7707;SDS011;3896;48.758;8.888;2022-07-06T07:13:57;8.77;;;3.23;;
7707;SDS011;3896;48.758;8.888;2022-07-06T07:16:22;4.03;;;2.50;;
7707;SDS011;3896;48.758;8.888;2022-07-06T07:18:51;3.83;;;3.37;;
7707;SDS011;3896;48.758;8.888;2022-07-06T07:21:16;3.33;;;2.43;;
7707;SDS011;3896;48.758;8.888;2022-07-06T07:23:42;7.30;;;2.70;;
7707;SDS011;3896;48.758;8.888;2022-07-06T07:26:08;3.33;;;2.63;;
7707;SDS011;3896;48.758;8.888;2022-07-06T07:28:33;5.80;;;2.37;;
7707;SDS011;3896;48.758;8.888;2022-07-06T07:30:59;3.90;;;2.67;;
7707;SDS011;3896;48.758;8.888;2022-07-06T07:33:24;4.63;;;2.53;;
7707;SDS011;3896;48.758;8.888;2022-07-06T07:35:50;4.73;;;2.73;;
7707;SDS011;3896;48.758;8.888;2022-07-06T07:38:16;4.97;;;2.80;;
7707;SDS011;3896;48.758;8.888;2022-07-06T07:40:41;2.93;;;2.27;;
7707;SDS011;3896;48.758;8.888;2022-07-06T07:43:07;2.83;;;2.27;;
7707;SDS011;3896;48.758;8.888;2022-07-06T07:45:33;4.10;;;2.60;;
7707;SDS011;3896;48.758;8.888;2022-07-06T07:47:59;2.67;;;2.47;;
7707;SDS011;3896;48.758;8.888;2022-07-06T07:50:24;4.17;;;2.43;;
7707;SDS011;3896;48.758;8.888;2022-07-06T07:52:51;5.37;;;2.70;;
7707;SDS011;3896;48.758;8.888;2022-07-06T07:55:17;3.33;;;2.30;;
7707;SDS011;3896;48.758;8.888;2022-07-06T07:57:43;3.00;;;2.70;;
7707;SDS011;3896;48.758;8.888;2022-07-06T08:00:09;3.00;;;2.60;;
7707;SDS011;3896;48.758;8.888;2022-07-06T08:02:35;4.87;;;2.63;;
7707;SDS011;3896;48.758;8.888;2022-07-06T08:05:01;2.90;;;2.10;;
7707;SDS011;3896;48.758;8.888;2022-07-06T08:07:27;4.27;;;3.17;;
7707;SDS011;3896;48.758;8.888;2022-07-06T08:09:53;4.40;;;3.30;;
7707;SDS011;3896;48.758;8.888;2022-07-06T08:12:18;7.83;;;2.70;;
7707;SDS011;3896;48.758;8.888;2022-07-06T08:14:44;3.10;;;2.37;;
7707;SDS011;3896;48.758;8.888;2022-07-06T08:17:10;2.80;;;2.60;;
7707;SDS011;3896;48.758;8.888;2022-07-06T08:19:35;7.40;;;2.80;;
7707;SDS011;3896;48.758;8.888;2022-07-06T08:22:01;3.00;;;2.70;;
7707;SDS011;3896;48.758;8.888;2022-07-06T08:24:32;3.17;;;2.83;;
7707;SDS011;3896;48.758;8.888;2022-07-06T08:26:59;4.13;;;3.07;;
7707;SDS011;3896;48.758;8.888;2022-07-06T08:29:25;3.50;;;3.20;;
7707;SDS011;3896;48.758;8.888;2022-07-06T08:31:50;3.03;;;2.67;;
7707;SDS011;3896;48.758;8.888;2022-07-06T08:34:16;2.97;;;2.50;;
7707;SDS011;3896;48.758;8.888;2022-07-06T08:36:42;7.57;;;3.60;;
7707;SDS011;3896;48.758;8.888;2022-07-06T08:39:07;3.97;;;2.40;;
7707;SDS011;3896;48.758;8.888;2022-07-06T08:41:33;3.63;;;3.23;;
7707;SDS011;3896;48.758;8.888;2022-07-06T08:44:01;6.63;;;3.30;;
7707;SDS011;3896;48.758;8.888;2022-07-06T08:46:27;3.33;;;2.97;;
7707;SDS011;3896;48.758;8.888;2022-07-06T08:48:57;4.77;;;2.83;;
7707;SDS011;3896;48.758;8.888;2022-07-06T08:51:23;2.70;;;2.50;;
7707;SDS011;3896;48.758;8.888;2022-07-06T08:53:49;4.93;;;3.07;;
7707;SDS011;3896;48.758;8.888;2022-07-06T08:56:16;4.00;;;2.37;;
7707;SDS011;3896;48.758;8.888;2022-07-06T08:58:44;7.67;;;2.90;;
7707;SDS011;3896;48.758;8.888;2022-07-06T09:01:10;3.27;;;2.87;;
7707;SDS011;3896;48.758;8.888;2022-07-06T09:03:36;6.57;;;3.57;;
7707;SDS011;3896;48.758;8.888;2022-07-06T09:06:02;4.50;;;3.03;;
7707;SDS011;3896;48.758;8.888;2022-07-06T09:08:29;7.07;;;3.30;;
7707;SDS011;3896;48.758;8.888;2022-07-06T09:10:56;5.00;;;3.20;;
7707;SDS011;3896;48.758;8.888;2022-07-06T09:13:21;5.50;;;2.50;;
7707;SDS011;3896;48.758;8.888;2022-07-06T09:15:47;5.63;;;3.30;;
7707;SDS011;3896;48.758;8.888;2022-07-06T09:18:13;7.20;;;3.10;;
7707;SDS011;3896;48.758;8.888;2022-07-06T09:20:40;3.13;;;2.83;;
7707;SDS011;3896;48.758;8.888;2022-07-06T09:23:07;3.30;;;3.00;;
7707;SDS011;3896;48.758;8.888;2022-07-06T09:25:33;7.60;;;2.90;;
7707;SDS011;3896;48.758;8.888;2022-07-06T09:27:59;5.17;;;2.87;;
7707;SDS011;3896;48.758;8.888;2022-07-06T09:30:27;4.37;;;2.87;;
7707;SDS011;3896;48.758;8.888;2022-07-06T09:32:54;5.30;;;2.77;;
7707;SDS011;3896;48.758;8.888;2022-07-06T09:38:01;3.00;;;2.57;;
7707;SDS011;3896;48.758;8.888;2022-07-06T09:40:35;3.87;;;2.87;;
7707;SDS011;3896;48.758;8.888;2022-07-06T09:45:41;6.20;;;2.70;;
7707;SDS011;3896;48.758;8.888;2022-07-06T09:48:09;6.03;;;2.37;;
7707;SDS011;3896;48.758;8.888;2022-07-06T09:50:47;3.33;;;2.80;;
7707;SDS011;3896;48.758;8.888;2022-07-06T09:53:16;6.27;;;2.80;;
7707;SDS011;3896;48.758;8.888;2022-07-06T09:55:52;5.17;;;3.00;;
7707;SDS011;3896;48.758;8.888;2022-07-06T09:58:20;6.97;;;3.00;;
7707;SDS011;3896;48.758;8.888;2022-07-06T10:00:46;5.27;;;2.47;;
7707;SDS011;3896;48.758;8.888;2022-07-06T10:03:13;3.17;;;2.30;;
7707;SDS011;3896;48.758;8.888;2022-07-06T10:05:41;5.13;;;2.53;;
7707;SDS011;3896;48.758;8.888;2022-07-06T10:08:11;5.30;;;2.53;;
7707;SDS011;3896;48.758;8.888;2022-07-06T10:10:37;4.60;;;2.40;;
7707;SDS011;3896;48.758;8.888;2022-07-06T10:13:04;4.67;;;2.63;;
7707;SDS011;3896;48.758;8.888;2022-07-06T10:15:31;4.77;;;2.97;;
7707;SDS011;3896;48.758;8.888;2022-07-06T10:17:59;4.43;;;2.53;;
7707;SDS011;3896;48.758;8.888;2022-07-06T10:20:30;3.87;;;2.93;;
7707;SDS011;3896;48.758;8.888;2022-07-06T10:22:57;5.20;;;2.90;;
7707;SDS011;3896;48.758;8.888;2022-07-06T10:25:25;6.20;;;2.90;;
7707;SDS011;3896;48.758;8.888;2022-07-06T10:27:51;5.40;;;3.00;;
7707;SDS011;3896;48.758;8.888;2022-07-06T10:30:18;4.37;;;3.00;;
7707;SDS011;3896;48.758;8.888;2022-07-06T10:32:46;3.87;;;3.23;;
7707;SDS011;3896;48.758;8.888;2022-07-06T10:35:19;5.43;;;3.13;;
7707;SDS011;3896;48.758;8.888;2022-07-06T10:37:45;5.20;;;2.73;;
7707;SDS011;3896;48.758;8.888;2022-07-06T10:40:37;3.73;;;2.50;;
7707;SDS011;3896;48.758;8.888;2022-07-06T10:43:23;4.70;;;2.87;;
7707;SDS011;3896;48.758;8.888;2022-07-06T10:45:55;3.77;;;2.50;;
7707;SDS011;3896;48.758;8.888;2022-07-06T10:48:21;5.87;;;2.63;;
7707;SDS011;3896;48.758;8.888;2022-07-06T10:50:48;4.70;;;2.70;;
7707;SDS011;3896;48.758;8.888;2022-07-06T10:53:23;7.03;;;3.00;;
7707;SDS011;3896;48.758;8.888;2022-07-06T10:55:53;4.83;;;3.63;;
7707;SDS011;3896;48.758;8.888;2022-07-06T10:58:40;4.67;;;2.57;;
7707;SDS011;3896;48.758;8.888;2022-07-06T11:01:16;5.53;;;2.63;;
7707;SDS011;3896;48.758;8.888;2022-07-06T11:06:31;4.30;;;2.97;;
7707;SDS011;3896;48.758;8.888;2022-07-06T11:09:00;3.40;;;2.80;;
7707;SDS011;3896;48.758;8.888;2022-07-06T11:14:02;3.77;;;2.97;;
7707;SDS011;3896;48.758;8.888;2022-07-06T11:16:34;9.00;;;3.47;;
7707;SDS011;3896;48.758;8.888;2022-07-06T11:19:26;5.37;;;3.37;;
7707;SDS011;3896;48.758;8.888;2022-07-06T11:21:52;5.70;;;2.70;;
7707;SDS011;3896;48.758;8.888;2022-07-06T11:24:23;3.77;;;2.60;;
7707;SDS011;3896;48.758;8.888;2022-07-06T11:26:54;5.37;;;2.90;;
7707;SDS011;3896;48.758;8.888;2022-07-06T11:29:21;6.80;;;2.50;;
7707;SDS011;3896;48.758;8.888;2022-07-06T11:31:49;3.30;;;2.83;;
7707;SDS011;3896;48.758;8.888;2022-07-06T11:34:27;8.50;;;2.60;;
7707;SDS011;3896;48.758;8.888;2022-07-06T11:36:58;2.83;;;2.63;;
7707;SDS011;3896;48.758;8.888;2022-07-06T11:39:31;5.20;;;2.80;;
7707;SDS011;3896;48.758;8.888;2022-07-06T11:41:59;4.10;;;2.80;;
7707;SDS011;3896;48.758;8.888;2022-07-06T11:44:25;4.17;;;2.60;;
7707;SDS011;3896;48.758;8.888;2022-07-06T11:46:51;5.53;;;3.03;;
7707;SDS011;3896;48.758;8.888;2022-07-06T11:49:19;2.97;;;2.43;;
7707;SDS011;3896;48.758;8.888;2022-07-06T11:51:45;7.87;;;2.50;;
7707;SDS011;3896;48.758;8.888;2022-07-06T11:56:38;6.57;;;2.87;;
7707;SDS011;3896;48.758;8.888;2022-07-06T11:59:21;7.13;;;2.13;;
7707;SDS011;3896;48.758;8.888;2022-07-06T12:02:24;5.57;;;2.60;;
7707;SDS011;3896;48.758;8.888;2022-07-06T12:04:44;5.77;;;2.47;;
7707;SDS011;3896;48.758;8.888;2022-07-06T12:07:11;3.50;;;2.37;;
7707;SDS011;3896;48.758;8.888;2022-07-06T12:09:39;4.00;;;2.50;;
7707;SDS011;3896;48.758;8.888;2022-07-06T12:12:07;4.53;;;2.10;;
7707;SDS011;3896;48.758;8.888;2022-07-06T12:14:34;6.55;;;2.17;;
7707;SDS011;3896;48.758;8.888;2022-07-06T12:17:05;2.67;;;2.00;;
7707;SDS011;3896;48.758;8.888;2022-07-06T12:19:31;4.88;;;2.38;;
7707;SDS011;3896;48.758;8.888;2022-07-06T12:21:57;5.20;;;1.83;;
7707;SDS011;3896;48.758;8.888;2022-07-06T12:24:25;4.13;;;2.22;;
7707;SDS011;3896;48.758;8.888;2022-07-06T12:26:58;3.47;;;1.85;;
7707;SDS011;3896;48.758;8.888;2022-07-06T12:29:36;2.57;;;1.93;;
7707;SDS011;3896;48.758;8.888;2022-07-06T12:32:02;4.70;;;1.90;;
7707;SDS011;3896;48.758;8.888;2022-07-06T12:34:30;4.03;;;1.80;;
7707;SDS011;3896;48.758;8.888;2022-07-06T12:36:58;3.77;;;2.20;;
7707;SDS011;3896;48.758;8.888;2022-07-06T12:39:25;3.30;;;2.03;;
7707;SDS011;3896;48.758;8.888;2022-07-06T12:41:58;3.05;;;2.08;;
7707;SDS011;3896;48.758;8.888;2022-07-06T12:44:27;3.45;;;2.15;;
7707;SDS011;3896;48.758;8.888;2022-07-06T12:47:17;3.55;;;2.33;;
7707;SDS011;3896;48.758;8.888;2022-07-06T12:49:43;4.93;;;2.50;;
7707;SDS011;3896;48.758;8.888;2022-07-06T12:52:12;7.10;;;2.05;;
7707;SDS011;3896;48.758;8.888;2022-07-06T12:54:43;6.13;;;2.10;;
7707;SDS011;3896;48.758;8.888;2022-07-06T13:05:00;3.78;;;1.80;;
7707;SDS011;3896;48.758;8.888;2022-07-06T13:07:31;3.03;;;2.08;;
7707;SDS011;3896;48.758;8.888;2022-07-06T13:10:00;2.65;;;2.20;;
7707;SDS011;3896;48.758;8.888;2022-07-06T13:12:27;3.88;;;1.98;;
7707;SDS011;3896;48.758;8.888;2022-07-06T13:14:53;1.90;;;1.80;;
7707;SDS011;3896;48.758;8.888;2022-07-06T13:17:19;2.30;;;2.10;;
7707;SDS011;3896;48.758;8.888;2022-07-06T13:19:44;3.85;;;2.15;;
7707;SDS011;3896;48.758;8.888;2022-07-06T13:22:10;2.70;;;1.63;;
7707;SDS011;3896;48.758;8.888;2022-07-06T13:24:36;3.95;;;1.95;;
7707;SDS011;3896;48.758;8.888;2022-07-06T13:27:02;4.50;;;1.98;;
7707;SDS011;3896;48.758;8.888;2022-07-06T13:29:28;4.43;;;1.52;;
7707;SDS011;3896;48.758;8.888;2022-07-06T13:31:54;2.10;;;1.52;;
7707;SDS011;3896;48.758;8.888;2022-07-06T13:34:19;3.53;;;1.67;;
7707;SDS011;3896;48.758;8.888;2022-07-06T13:36:45;2.50;;;1.60;;
7707;SDS011;3896;48.758;8.888;2022-07-06T13:39:11;2.40;;;1.73;;
7707;SDS011;3896;48.758;8.888;2022-07-06T13:41:37;4.50;;;2.05;;
7707;SDS011;3896;48.758;8.888;2022-07-06T13:44:02;5.07;;;1.73;;
7707;SDS011;3896;48.758;8.888;2022-07-06T13:46:28;5.53;;;1.48;;
7707;SDS011;3896;48.758;8.888;2022-07-06T13:48:55;3.97;;;1.67;;
7707;SDS011;3896;48.758;8.888;2022-07-06T13:51:22;1.40;;;1.30;;
7707;SDS011;3896;48.758;8.888;2022-07-06T13:53:48;3.00;;;1.77;;
7707;SDS011;3896;48.758;8.888;2022-07-06T13:56:14;5.22;;;2.00;;
7707;SDS011;3896;48.758;8.888;2022-07-06T13:58:40;5.28;;;1.95;;
7707;SDS011;3896;48.758;8.888;2022-07-06T14:01:06;4.38;;;1.60;;
7707;SDS011;3896;48.758;8.888;2022-07-06T14:03:32;3.63;;;1.60;;
7707;SDS011;3896;48.758;8.888;2022-07-06T14:05:58;1.63;;;1.52;;
7707;SDS011;3896;48.758;8.888;2022-07-06T14:08:25;2.00;;;1.63;;
7707;SDS011;3896;48.758;8.888;2022-07-06T14:10:51;2.35;;;1.40;;
7707;SDS011;3896;48.758;8.888;2022-07-06T14:13:18;4.03;;;1.50;;
7707;SDS011;3896;48.758;8.888;2022-07-06T14:15:44;1.70;;;1.55;;
7707;SDS011;3896;48.758;8.888;2022-07-06T14:18:10;2.15;;;1.58;;
7707;SDS011;3896;48.758;8.888;2022-07-06T14:20:35;1.83;;;1.15;;
7707;SDS011;3896;48.758;8.888;2022-07-06T14:23:01;2.00;;;1.60;;
7707;SDS011;3896;48.758;8.888;2022-07-06T14:25:26;1.63;;;1.30;;
7707;SDS011;3896;48.758;8.888;2022-07-06T14:27:52;3.80;;;1.40;;
7707;SDS011;3896;48.758;8.888;2022-07-06T14:30:18;2.17;;;1.50;;
7707;SDS011;3896;48.758;8.888;2022-07-06T14:32:43;2.42;;;1.75;;
7707;SDS011;3896;48.758;8.888;2022-07-06T14:35:10;3.08;;;1.75;;
7707;SDS011;3896;48.758;8.888;2022-07-06T14:37:36;1.88;;;1.40;;
7707;SDS011;3896;48.758;8.888;2022-07-06T14:40:01;2.28;;;1.70;;
7707;SDS011;3896;48.758;8.888;2022-07-06T14:42:27;1.50;;;1.40;;
7707;SDS011;3896;48.758;8.888;2022-07-06T14:44:53;3.63;;;1.50;;
7707;SDS011;3896;48.758;8.888;2022-07-06T14:47:19;1.70;;;1.60;;
7707;SDS011;3896;48.758;8.888;2022-07-06T14:49:44;1.50;;;1.40;;
7707;SDS011;3896;48.758;8.888;2022-07-06T14:52:10;2.50;;;1.50;;
7707;SDS011;3896;48.758;8.888;2022-07-06T14:54:35;2.80;;;1.20;;
7707;SDS011;3896;48.758;8.888;2022-07-06T14:57:02;3.30;;;1.95;;
7707;SDS011;3896;48.758;8.888;2022-07-06T14:59:29;2.33;;;1.85;;
7707;SDS011;3896;48.758;8.888;2022-07-06T15:01:57;3.20;;;1.30;;
7707;SDS011;3896;48.758;8.888;2022-07-06T15:04:23;3.28;;;1.63;;
7707;SDS011;3896;48.758;8.888;2022-07-06T15:06:49;1.52;;;1.17;;
7707;SDS011;3896;48.758;8.888;2022-07-06T15:09:15;2.17;;;1.20;;
7707;SDS011;3896;48.758;8.888;2022-07-06T15:11:41;1.33;;;1.08;;
7707;SDS011;3896;48.758;8.888;2022-07-06T15:14:07;1.75;;;1.25;;
7707;SDS011;3896;48.758;8.888;2022-07-06T15:16:33;1.45;;;1.33;;
7707;SDS011;3896;48.758;8.888;2022-07-06T15:18:58;2.30;;;1.40;;
7707;SDS011;3896;48.758;8.888;2022-07-06T15:21:24;2.78;;;1.50;;
7707;SDS011;3896;48.758;8.888;2022-07-06T15:23:50;1.83;;;1.42;;
7707;SDS011;3896;48.758;8.888;2022-07-06T15:26:15;1.73;;;1.30;;
7707;SDS011;3896;48.758;8.888;2022-07-06T15:28:41;2.28;;;1.67;;
7707;SDS011;3896;48.758;8.888;2022-07-06T15:31:07;3.22;;;1.20;;
7707;SDS011;3896;48.758;8.888;2022-07-06T15:33:32;2.70;;;1.50;;
7707;SDS011;3896;48.758;8.888;2022-07-06T15:35:58;2.05;;;1.40;;